Time;durP1;ratioP1;P1;durP2;ratioP2;P2;SDS_P1;SDS_P2;PMS_P1;PMS_P2;Temp;Humidity;BMP_temperature;BMP_pressure;BME280_temperature;BME280_humidity;BME280_pressure;Samples;Min_cycle;Max_cycle;Signal;HPM_P1;HPM_P2
2021/12/26 00:00:59;;;;;;;2.88;2.38;;;-1.70;99.90;;;;;;4997188;28;20015;-79
2021/12/26 00:03:26;;;;;;;5.05;3.28;;;-1.70;99.90;;;;;;4979674;28;20572;-74
2021/12/26 00:05:53;;;;;;;6.63;2.97;;;-1.70;99.90;;;;;;4996782;28;20371;-85
2021/12/26 00:08:19;;;;;;;3.17;2.17;;;-1.80;99.90;;;;;;4996988;28;20062;-81
2021/12/26 00:10:47;;;;;;;2.88;2.42;;;-1.80;99.90;;;;;;4979981;28;20096;-83
2021/12/26 00:13:12;;;;;;;2.13;1.92;;;-1.70;99.90;;;;;;4996593;28;20700;-78
2021/12/26 00:15:38;;;;;;;3.08;2.60;;;-1.70;99.90;;;;;;4997194;28;20093;-77
2021/12/26 00:18:04;;;;;;;3.50;2.00;;;-1.80;99.90;;;;;;4997191;28;20026;-76
2021/12/26 00:20:29;;;;;;;3.90;2.20;;;-1.80;99.90;;;;;;4996297;28;20042;-84
2021/12/26 00:22:55;;;;;;;3.72;2.10;;;-1.80;99.90;;;;;;4997304;28;20502;-76
2021/12/26 00:25:21;;;;;;;3.25;2.40;;;-1.80;99.90;;;;;;4979287;28;20022;-76
2021/12/26 00:27:46;;;;;;;2.42;2.15;;;-1.70;99.90;;;;;;4979472;28;20120;-80
2021/12/26 00:30:16;;;;;;;3.13;2.50;;;-1.80;99.90;;;;;;4979613;28;20367;-80
2021/12/26 00:32:42;;;;;;;3.08;2.10;;;-1.80;99.90;;;;;;4978737;28;20031;-75
2021/12/26 00:35:11;;;;;;;3.03;2.33;;;-1.80;99.90;;;;;;4979847;28;20041;-80
2021/12/26 00:37:37;;;;;;;3.33;2.60;;;-1.80;99.90;;;;;;4979604;28;20022;-80
2021/12/26 00:40:04;;;;;;;2.47;2.05;;;-1.80;99.90;;;;;;4979355;28;20101;-76
2021/12/26 00:42:30;;;;;;;2.38;2.10;;;-1.90;99.90;;;;;;4996378;28;20045;-76
2021/12/26 00:44:55;;;;;;;3.70;3.03;;;-1.90;99.90;;;;;;4997420;28;20022;-78
2021/12/26 00:47:21;;;;;;;3.53;2.33;;;-1.90;99.90;;;;;;4975850;28;20479;-87
2021/12/26 00:49:47;;;;;;;2.55;2.20;;;-1.90;99.90;;;;;;4976558;28;20023;-75
2021/12/26 00:52:12;;;;;;;2.42;1.98;;;-1.90;99.90;;;;;;4993435;28;20363;-78
2021/12/26 00:54:38;;;;;;;4.05;2.50;;;-1.90;99.90;;;;;;4975596;28;20023;-74
2021/12/26 00:57:04;;;;;;;3.03;2.10;;;-1.80;99.90;;;;;;4976209;28;20497;-76
2021/12/26 00:59:32;;;;;;;2.88;2.30;;;-1.90;99.90;;;;;;4993280;28;20081;-74
2021/12/26 01:01:58;;;;;;;2.92;2.20;;;-1.90;99.90;;;;;;4975350;28;20029;-74
2021/12/26 01:04:24;;;;;;;4.07;2.47;;;-2.00;99.90;;;;;;4993222;28;20026;-74
2021/12/26 01:06:50;;;;;;;2.38;2.08;;;-2.00;99.90;;;;;;4976363;28;20038;-74
2021/12/26 01:09:22;;;;;;;3.28;2.30;;;-2.00;99.90;;;;;;4992578;28;20029;-74
2021/12/26 01:11:52;;;;;;;2.88;2.55;;;-2.00;99.90;;;;;;4976216;28;20018;-75
2021/12/26 01:14:26;;;;;;;3.85;2.33;;;-1.90;99.90;;;;;;4975884;28;20029;-76
2021/12/26 01:17:04;;;;;;;3.72;2.10;;;-2.00;99.90;;;;;;4975725;28;20486;-75
2021/12/26 01:19:39;;;;;;;3.00;2.15;;;-2.00;99.90;;;;;;4974821;28;20042;-78
2021/12/26 01:22:05;;;;;;;3.92;2.38;;;-2.00;99.90;;;;;;5004897;28;20072;-78
2021/12/26 01:24:30;;;;;;;3.20;2.60;;;-2.00;99.90;;;;;;5012616;28;20030;-75
2021/12/26 01:26:56;;;;;;;4.63;2.42;;;-2.00;99.90;;;;;;4993732;28;20096;-83
2021/12/26 01:29:22;;;;;;;3.75;2.67;;;-2.00;99.90;;;;;;4992235;28;20105;-78
2021/12/26 01:31:47;;;;;;;2.13;1.90;;;-2.00;99.90;;;;;;4993023;28;20374;-76
2021/12/26 01:34:13;;;;;;;3.55;2.60;;;-2.00;99.90;;;;;;4992996;28;20515;-77
2021/12/26 01:36:39;;;;;;;3.17;2.30;;;-2.00;99.90;;;;;;4992598;28;20026;-76
2021/12/26 01:39:08;;;;;;;3.72;2.17;;;-2.00;99.90;;;;;;4993287;28;20101;-75
2021/12/26 01:41:39;;;;;;;3.15;2.13;;;-2.00;99.90;;;;;;4992470;28;20061;-79
2021/12/26 01:44:08;;;;;;;2.38;2.17;;;-2.00;99.90;;;;;;4992235;28;20030;-76
2021/12/26 01:46:34;;;;;;;3.08;2.47;;;-2.00;99.90;;;;;;4974846;28;20077;-75
2021/12/26 01:49:02;;;;;;;3.25;2.30;;;-2.00;99.90;;;;;;4975576;28;20030;-77
2021/12/26 01:51:28;;;;;;;2.95;2.47;;;-2.00;99.90;;;;;;4990145;28;20029;-75
2021/12/26 01:53:53;;;;;;;2.72;2.47;;;-2.00;99.90;;;;;;5004840;28;20436;-81
2021/12/26 01:56:19;;;;;;;2.50;2.17;;;-2.00;99.90;;;;;;4994983;28;20022;-80
2021/12/26 01:58:45;;;;;;;2.97;2.20;;;-2.00;99.90;;;;;;5011628;28;20030;-84
2021/12/26 02:01:13;;;;;;;2.90;2.10;;;-2.00;99.90;;;;;;4994752;28;20469;-75
2021/12/26 02:03:40;;;;;;;3.63;1.90;;;-2.00;99.90;;;;;;4994619;28;20026;-83
2021/12/26 02:06:07;;;;;;;4.20;2.30;;;-2.00;99.90;;;;;;4994171;28;20054;-74
2021/12/26 02:08:34;;;;;;;2.13;1.92;;;-2.00;99.90;;;;;;4997080;28;20030;-74
2021/12/26 02:11:02;;;;;;;3.10;2.10;;;-2.00;99.90;;;;;;4975942;28;20105;-74
2021/12/26 02:13:28;;;;;;;3.35;1.98;;;-2.00;99.90;;;;;;4994134;28;20382;-75
2021/12/26 02:15:54;;;;;;;2.38;1.70;;;-2.00;99.90;;;;;;4985257;28;20046;-74
2021/12/26 02:18:20;;;;;;;3.72;2.20;;;-2.00;99.90;;;;;;4991713;28;20084;-74
2021/12/26 02:23:31;;;;;;;2.53;2.20;;;-2.00;99.90;;;;;;4992185;28;20133;-73
2021/12/26 02:28:26;;;;;;;3.03;2.35;;;-2.10;99.90;;;;;;5004331;28;20038;-77
2021/12/26 02:30:54;;;;;;;2.67;2.08;;;-2.00;99.90;;;;;;4994556;28;20018;-77
2021/12/26 02:33:20;;;;;;;3.03;2.30;;;-2.10;99.90;;;;;;4993408;28;20069;-74
2021/12/26 02:35:47;;;;;;;4.28;2.40;;;-2.00;99.90;;;;;;5012263;28;20029;-79
2021/12/26 02:38:14;;;;;;;2.63;2.05;;;-2.10;99.90;;;;;;5011669;28;20057;-87
2021/12/26 02:40:42;;;;;;;3.25;2.30;;;-2.10;99.90;;;;;;5011435;28;20075;-81
2021/12/26 02:43:09;;;;;;;2.58;2.10;;;-2.10;99.90;;;;;;4994091;28;20029;-77
2021/12/26 02:45:35;;;;;;;2.33;2.13;;;-2.10;99.90;;;;;;4993504;28;20025;-76
2021/12/26 02:48:01;;;;;;;2.50;2.28;;;-2.10;99.90;;;;;;4992316;28;20498;-78
2021/12/26 02:50:31;;;;;;;4.45;2.55;;;-2.10;99.90;;;;;;4992355;28;20029;-76
2021/12/26 02:53:02;;;;;;;2.92;2.05;;;-2.10;99.90;;;;;;4987143;28;20026;-77
2021/12/26 02:55:28;;;;;;;2.55;2.03;;;-2.10;99.90;;;;;;4990192;28;20022;-79
2021/12/26 02:57:57;;;;;;;3.28;2.22;;;-2.20;99.90;;;;;;4989856;28;20025;-78
2021/12/26 03:00:26;;;;;;;2.63;2.10;;;-2.10;99.90;;;;;;4990946;28;20030;-79
2021/12/26 03:02:54;;;;;;;3.25;2.45;;;-2.10;99.90;;;;;;4996571;28;20097;-82
2021/12/26 03:05:21;;;;;;;2.10;1.90;;;-2.10;99.90;;;;;;5011052;28;20057;-76
2021/12/26 03:07:48;;;;;;;4.07;2.22;;;-2.20;99.90;;;;;;5010525;28;20084;-82
2021/12/26 03:10:21;;;;;;;2.25;1.98;;;-2.20;99.90;;;;;;5009767;28;20038;-82
2021/12/26 03:12:54;;;;;;;2.72;2.40;;;-2.20;99.90;;;;;;4993340;28;20459;-75
2021/12/26 03:15:20;;;;;;;2.90;2.30;;;-2.20;99.90;;;;;;4992489;28;20018;-83
2021/12/26 03:17:46;;;;;;;3.22;2.25;;;-2.20;99.90;;;;;;4993162;28;20447;-76
2021/12/26 03:20:15;;;;;;;3.17;2.15;;;-2.20;99.90;;;;;;5011035;28;20244;-84
2021/12/26 03:22:40;;;;;;;2.50;1.95;;;-2.20;99.90;;;;;;5010035;28;20929;-84
2021/12/26 03:25:11;;;;;;;3.00;2.30;;;-2.20;99.90;;;;;;5011160;28;20057;-86
2021/12/26 03:27:37;;;;;;;2.10;1.90;;;-2.20;99.90;;;;;;4993122;28;20046;-80
2021/12/26 03:30:06;;;;;;;2.78;2.33;;;-2.30;99.90;;;;;;4992693;28;20603;-88
2021/12/26 03:32:32;;;;;;;5.50;2.25;;;-2.20;99.90;;;;;;4993093;28;20034;-87
2021/12/26 03:34:57;;;;;;;2.60;2.35;;;-2.30;99.90;;;;;;4993088;28;20022;-84
2021/12/26 03:37:23;;;;;;;2.60;1.98;;;-2.30;99.90;;;;;;5010223;28;20038;-78
2021/12/26 03:39:49;;;;;;;3.63;2.28;;;-2.30;99.90;;;;;;4993278;28;20492;-83
2021/12/26 03:42:15;;;;;;;2.67;2.00;;;-2.30;99.90;;;;;;4992090;28;20116;-81
2021/12/26 03:44:41;;;;;;;2.67;2.35;;;-2.30;99.90;;;;;;4993320;28;20120;-78
2021/12/26 03:47:06;;;;;;;2.30;2.10;;;-2.30;99.90;;;;;;4993081;28;20142;-80
2021/12/26 03:49:32;;;;;;;2.25;1.95;;;-2.30;99.90;;;;;;5009295;28;20076;-80
2021/12/26 03:51:57;;;;;;;3.83;2.33;;;-2.30;99.90;;;;;;4992723;28;20033;-80
2021/12/26 03:54:23;;;;;;;2.22;2.03;;;-2.30;99.90;;;;;;5010744;28;20026;-80
2021/12/26 03:56:49;;;;;;;3.08;2.15;;;-2.30;99.90;;;;;;5010051;28;20030;-76
2021/12/26 03:59:14;;;;;;;2.88;2.20;;;-2.30;99.90;;;;;;4992929;28;20037;-75
2021/12/26 04:01:40;;;;;;;4.15;2.40;;;-2.30;99.90;;;;;;5010600;28;20034;-78
2021/12/26 04:04:06;;;;;;;3.95;2.20;;;-2.40;99.90;;;;;;5009837;28;20049;-76
2021/12/26 04:06:31;;;;;;;3.40;2.35;;;-2.30;99.90;;;;;;4992670;28;20045;-78
2021/12/26 04:08:57;;;;;;;5.10;2.10;;;-2.30;99.90;;;;;;5010411;28;20053;-75
2021/12/26 04:11:23;;;;;;;2.78;2.20;;;-2.30;99.90;;;;;;4991979;28;20083;-82
2021/12/26 04:13:49;;;;;;;2.88;2.13;;;-2.30;99.90;;;;;;4992631;28;20438;-75
2021/12/26 04:16:15;;;;;;;2.90;2.33;;;-2.30;99.90;;;;;;5010201;28;20116;-75
2021/12/26 04:18:40;;;;;;;2.67;2.30;;;-2.30;99.90;;;;;;4992125;28;20363;-81
2021/12/26 04:21:06;;;;;;;2.85;2.10;;;-2.30;99.90;;;;;;5011410;28;20034;-75
2021/12/26 04:23:33;;;;;;;2.83;2.00;;;-2.30;99.90;;;;;;5013802;28;20034;-78
2021/12/26 04:25:59;;;;;;;3.35;2.45;;;-2.30;99.90;;;;;;4995498;28;20120;-76
2021/12/26 04:28:25;;;;;;;3.72;1.77;;;-2.30;99.90;;;;;;4995713;28;20121;-74
2021/12/26 04:30:50;;;;;;;3.13;2.10;;;-2.30;99.90;;;;;;5013951;28;20029;-76
2021/12/26 04:33:16;;;;;;;2.28;2.08;;;-2.30;99.90;;;;;;4995106;28;20389;-80
2021/12/26 04:35:42;;;;;;;2.25;2.05;;;-2.30;99.90;;;;;;5013868;28;20033;-77
2021/12/26 04:38:07;;;;;;;2.10;1.90;;;-2.30;99.90;;;;;;4996378;28;20083;-83
2021/12/26 04:40:33;;;;;;;2.55;2.08;;;-2.30;99.90;;;;;;5012807;28;20091;-82
2021/12/26 04:42:58;;;;;;;2.20;1.90;;;-2.30;99.90;;;;;;5013631;28;20108;-79
2021/12/26 04:45:26;;;;;;;3.05;2.00;;;-2.30;99.90;;;;;;5013464;28;20029;-77
2021/12/26 04:47:52;;;;;;;4.63;2.35;;;-2.30;99.90;;;;;;4996023;28;20038;-80
2021/12/26 04:50:24;;;;;;;5.07;2.88;;;-2.30;99.90;;;;;;5013325;28;20104;-74
2021/12/26 04:52:50;;;;;;;;;;;-2.40;99.90;;;;;;4995820;28;20030;-76
2021/12/26 04:55:22;;;;;;;1.85;1.70;;;-2.30;99.90;;;;;;5013204;28;19921;-74
2021/12/26 04:57:47;;;;;;;;;;;-2.30;99.90;;;;;;5013877;28;20596;-83
2021/12/26 05:00:16;;;;;;;2.33;1.80;;;-2.30;99.90;;;;;;4995087;28;19996;-74
2021/12/26 05:02:43;;;;;;;2.40;2.20;;;-2.40;99.90;;;;;;4995393;28;20029;-74
2021/12/26 05:05:10;;;;;;;3.67;2.13;;;-2.40;99.90;;;;;;5013199;28;20108;-80
2021/12/26 05:07:36;;;;;;;2.00;1.77;;;-2.40;99.90;;;;;;4994778;28;20135;-81
2021/12/26 05:10:03;;;;;;;2.05;1.70;;;-2.40;99.90;;;;;;4995548;28;20422;-80
2021/12/26 05:12:29;;;;;;;2.60;2.10;;;-2.40;99.90;;;;;;4995117;28;20556;-81
2021/12/26 05:14:54;;;;;;;3.90;2.80;;;-2.40;99.90;;;;;;4994981;28;20026;-75
2021/12/26 05:17:20;;;;;;;2.63;1.83;;;-2.40;99.90;;;;;;5013379;28;20521;-80
2021/12/26 05:19:46;;;;;;;2.55;1.83;;;-2.40;99.90;;;;;;5013380;28;20022;-87
2021/12/26 05:22:11;;;;;;;2.88;1.90;;;-2.40;99.90;;;;;;5012146;28;20498;-80
2021/12/26 05:24:37;;;;;;;3.20;2.38;;;-2.40;99.90;;;;;;4995653;28;20557;-74
2021/12/26 05:27:03;;;;;;;2.55;2.17;;;-2.40;99.90;;;;;;4995746;28;20120;-75
2021/12/26 05:29:28;;;;;;;3.92;1.92;;;-2.40;99.90;;;;;;4994802;28;20038;-75
2021/12/26 05:31:54;;;;;;;4.13;2.20;;;-2.40;99.90;;;;;;4995022;28;20040;-80
2021/12/26 05:34:20;;;;;;;2.13;1.85;;;-2.40;99.90;;;;;;5012365;28;20030;-74
2021/12/26 05:36:46;;;;;;;2.05;1.70;;;-2.40;99.90;;;;;;5012103;28;20464;-78
2021/12/26 05:39:12;;;;;;;2.28;2.08;;;-2.40;99.90;;;;;;4995281;28;20413;-87
2021/12/26 05:41:38;;;;;;;2.25;2.05;;;-2.30;99.90;;;;;;4995251;28;20117;-80
2021/12/26 05:44:05;;;;;;;2.55;2.35;;;-2.30;99.90;;;;;;4994638;28;20053;-83
2021/12/26 05:46:31;;;;;;;3.28;2.05;;;-2.30;99.90;;;;;;5012113;28;20122;-77
2021/12/26 05:48:56;;;;;;;3.90;2.33;;;-2.30;99.90;;;;;;4994433;28;20515;-75
2021/12/26 05:51:22;;;;;;;2.67;2.10;;;-2.30;99.90;;;;;;4994880;28;20022;-79
2021/12/26 05:53:48;;;;;;;3.17;1.98;;;-2.30;99.90;;;;;;4994357;28;20038;-83
2021/12/26 05:56:13;;;;;;;2.97;2.10;;;-2.30;99.90;;;;;;4994306;28;20072;-77
2021/12/26 05:58:39;;;;;;;2.60;1.92;;;-2.30;99.90;;;;;;4994530;28;20079;-77
2021/12/26 06:01:05;;;;;;;2.53;2.00;;;-2.30;99.90;;;;;;4994582;28;20018;-77
2021/12/26 06:03:31;;;;;;;2.85;2.33;;;-2.30;99.90;;;;;;4993141;28;20538;-76
2021/12/26 06:05:56;;;;;;;2.53;1.98;;;-2.10;99.90;;;;;;4994527;28;20033;-79
2021/12/26 06:08:22;;;;;;;2.13;1.90;;;-2.10;99.90;;;;;;5012003;28;20466;-76
2021/12/26 06:10:48;;;;;;;2.25;1.95;;;-2.00;99.90;;;;;;5011696;28;20101;-81
2021/12/26 06:13:13;;;;;;;3.65;2.03;;;-1.90;99.90;;;;;;4993954;28;20043;-75
2021/12/26 06:15:39;;;;;;;2.42;1.60;;;-1.80;99.90;;;;;;4994175;28;20033;-76
2021/12/26 06:18:04;;;;;;;2.80;2.08;;;-1.70;99.90;;;;;;4993940;28;20094;-82
2021/12/26 06:20:30;;;;;;;2.25;1.73;;;-1.60;99.90;;;;;;4994016;28;20044;-77
2021/12/26 06:22:55;;;;;;;3.70;2.50;;;-1.50;99.90;;;;;;5011495;28;20042;-75
2021/12/26 06:25:21;;;;;;;3.55;2.25;;;-1.50;99.90;;;;;;5010859;28;20036;-77
2021/12/26 06:27:47;;;;;;;1.98;1.75;;;-1.40;99.90;;;;;;5011343;28;20034;-74
2021/12/26 06:30:14;;;;;;;2.28;1.88;;;-1.40;99.90;;;;;;5011243;28;20036;-75
2021/12/26 06:32:40;;;;;;;2.40;1.98;;;-1.30;99.90;;;;;;4993349;28;20112;-79
2021/12/26 06:35:06;;;;;;;2.58;1.92;;;-1.20;99.90;;;;;;5011334;28;20032;-74
2021/12/26 06:37:32;;;;;;;2.88;2.13;;;-1.20;99.90;;;;;;4993481;28;20037;-79
2021/12/26 06:39:59;;;;;;;3.00;2.15;;;-1.20;99.90;;;;;;5011088;28;20485;-76
2021/12/26 06:42:25;;;;;;;3.72;2.45;;;-1.10;99.90;;;;;;4989469;28;20045;-74
2021/12/26 06:44:51;;;;;;;3.22;2.10;;;-1.10;99.90;;;;;;4971941;28;20038;-75
2021/12/26 06:47:17;;;;;;;2.78;1.88;;;-1.10;99.90;;;;;;4971581;28;20546;-77
2021/12/26 06:49:43;;;;;;;2.22;1.77;;;-1.10;99.90;;;;;;4990740;28;20023;-76
2021/12/26 06:52:09;;;;;;;4.53;2.33;;;-1.00;99.90;;;;;;4971924;28;20471;-77
2021/12/26 06:54:36;;;;;;;2.22;1.77;;;-1.00;99.90;;;;;;4979034;28;20022;-75
2021/12/26 06:57:03;;;;;;;2.17;1.98;;;-1.10;99.90;;;;;;5011116;28;20033;-74
2021/12/26 06:59:28;;;;;;;1.98;1.88;;;-1.00;99.90;;;;;;4997544;28;20025;-75
2021/12/26 07:01:54;;;;;;;2.22;1.90;;;-1.10;99.90;;;;;;4973828;28;20018;-74
2021/12/26 07:04:20;;;;;;;2.35;2.00;;;-1.00;99.90;;;;;;4968805;28;20028;-74
2021/12/26 07:06:46;;;;;;;2.53;2.22;;;-1.00;99.90;;;;;;4953734;28;20181;-75
2021/12/26 07:09:11;;;;;;;2.95;1.90;;;-0.90;99.90;;;;;;4988501;28;20018;-75
2021/12/26 07:11:37;;;;;;;2.60;2.40;;;-0.90;99.90;;;;;;4991335;28;20034;-73
2021/12/26 07:14:03;;;;;;;2.58;2.00;;;-0.90;99.90;;;;;;4990720;28;20029;-79
2021/12/26 07:16:29;;;;;;;2.03;1.83;;;-0.90;99.90;;;;;;4990818;28;20085;-74
2021/12/26 07:18:54;;;;;;;2.15;1.95;;;-0.90;99.90;;;;;;4974207;28;20026;-75
2021/12/26 07:21:20;;;;;;;2.40;2.20;;;-0.90;99.90;;;;;;4987315;28;20034;-74
2021/12/26 07:23:46;;;;;;;3.50;2.25;;;-0.90;99.90;;;;;;4973800;28;20391;-83
2021/12/26 07:26:11;;;;;;;2.65;1.90;;;-0.90;99.90;;;;;;4990905;28;20034;-74
2021/12/26 07:28:37;;;;;;;3.13;2.17;;;-0.90;99.90;;;;;;4990243;28;20115;-81
2021/12/26 07:31:03;;;;;;;3.67;2.50;;;-0.90;99.90;;;;;;4989467;28;20026;-80
2021/12/26 07:33:28;;;;;;;3.63;2.20;;;-0.80;99.90;;;;;;4991165;28;20022;-73
2021/12/26 07:35:54;;;;;;;2.70;2.33;;;-0.80;99.90;;;;;;4990925;28;20046;-74
2021/12/26 07:38:20;;;;;;;3.13;2.50;;;-0.80;99.90;;;;;;4989787;28;20022;-77
2021/12/26 07:40:46;;;;;;;3.33;2.25;;;-0.80;99.90;;;;;;4991007;28;20386;-84
2021/12/26 07:43:13;;;;;;;4.05;2.60;;;-0.80;99.90;;;;;;4989279;28;20057;-74
2021/12/26 07:45:39;;;;;;;5.45;2.20;;;-0.80;99.90;;;;;;4989835;28;20108;-82
2021/12/26 07:48:05;;;;;;;3.65;2.40;;;-0.80;99.90;;;;;;4990879;28;20042;-76
2021/12/26 07:50:31;;;;;;;2.25;2.05;;;-0.80;99.90;;;;;;4984474;28;20026;-77
2021/12/26 07:53:03;;;;;;;2.42;2.08;;;-0.70;99.90;;;;;;4970565;28;20136;-74
2021/12/26 07:55:29;;;;;;;3.08;2.28;;;-0.80;99.90;;;;;;4969150;28;20022;-74
2021/12/26 07:57:54;;;;;;;2.05;1.70;;;-0.80;99.90;;;;;;5013320;28;20105;-80
2021/12/26 08:00:21;;;;;;;2.13;1.90;;;-0.80;99.90;;;;;;4991085;28;20101;-74
2021/12/26 08:02:47;;;;;;;2.35;1.98;;;-0.80;99.90;;;;;;4993965;28;20030;-73
2021/12/26 08:05:14;;;;;;;2.38;2.00;;;-0.80;99.90;;;;;;4994760;28;20022;-74
2021/12/26 08:07:39;;;;;;;3.38;1.77;;;-0.80;99.90;;;;;;4977103;28;20169;-73
2021/12/26 08:10:05;;;;;;;4.32;2.20;;;-0.80;99.90;;;;;;4976520;28;20124;-73
2021/12/26 08:12:31;;;;;;;2.92;2.00;;;-0.80;99.90;;;;;;4976268;28;20026;-75
2021/12/26 08:14:59;;;;;;;1.98;1.88;;;-0.80;99.90;;;;;;5011808;28;20052;-77
2021/12/26 08:17:25;;;;;;;2.35;2.15;;;-0.90;99.90;;;;;;4987750;28;20049;-75
2021/12/26 08:19:50;;;;;;;2.78;2.13;;;-0.90;99.90;;;;;;4995659;28;20177;-74
2021/12/26 08:22:16;;;;;;;2.45;2.00;;;-1.00;99.90;;;;;;4993494;28;20047;-75
2021/12/26 08:24:42;;;;;;;4.22;2.65;;;-1.00;99.90;;;;;;4976364;28;20018;-81
2021/12/26 08:27:08;;;;;;;3.38;2.60;;;-1.10;99.90;;;;;;4993785;28;20049;-78
2021/12/26 08:29:34;;;;;;;3.75;2.10;;;-1.10;99.90;;;;;;4991094;28;20042;-76
2021/12/26 08:32:01;;;;;;;2.67;2.38;;;-1.10;99.90;;;;;;4976020;28;20030;-79
2021/12/26 08:34:27;;;;;;;4.57;2.40;;;-1.10;99.90;;;;;;4976074;28;20021;-75
2021/12/26 08:37:00;;;;;;;3.13;2.20;;;-1.10;99.90;;;;;;4971822;28;20125;-76
2021/12/26 08:39:28;;;;;;;4.43;2.47;;;-1.10;99.90;;;;;;4971354;28;20088;-80
2021/12/26 08:41:54;;;;;;;4.50;2.08;;;-1.10;99.90;;;;;;4976020;28;20014;-80
2021/12/26 08:44:20;;;;;;;2.58;2.35;;;-1.10;99.90;;;;;;4975986;28;20053;-78
2021/12/26 08:46:46;;;;;;;4.18;2.22;;;-1.10;99.90;;;;;;4975609;28;20505;-78
2021/12/26 08:49:13;;;;;;;3.58;2.80;;;-1.10;99.90;;;;;;4969442;28;20019;-77
2021/12/26 08:51:39;;;;;;;2.83;2.25;;;-1.10;99.90;;;;;;4993767;28;20356;-76
2021/12/26 08:54:05;;;;;;;2.85;2.40;;;-1.10;99.90;;;;;;4976156;28;20046;-75
2021/12/26 08:56:31;;;;;;;2.95;2.55;;;-1.10;99.90;;;;;;4989815;28;20030;-78
2021/12/26 08:58:56;;;;;;;4.43;2.50;;;-1.10;99.90;;;;;;4978154;28;20044;-77
2021/12/26 09:01:22;;;;;;;2.65;2.22;;;-1.00;99.90;;;;;;4974779;28;20041;-78
2021/12/26 09:03:48;;;;;;;2.70;2.15;;;-1.10;99.90;;;;;;4975511;28;20109;-76
2021/12/26 09:06:13;;;;;;;3.65;2.80;;;-1.10;99.90;;;;;;4991777;28;20037;-79
2021/12/26 09:08:39;;;;;;;4.13;2.42;;;-1.10;99.90;;;;;;4993891;28;20378;-79
2021/12/26 09:11:05;;;;;;;3.10;2.42;;;-1.10;99.90;;;;;;4986021;28;20077;-77
2021/12/26 09:13:31;;;;;;;4.90;3.00;;;-1.10;99.90;;;;;;4974824;28;20419;-77
2021/12/26 09:15:56;;;;;;;2.50;2.30;;;-1.10;99.90;;;;;;4975588;28;20026;-76
2021/12/26 09:18:22;;;;;;;2.63;2.40;;;-1.10;99.90;;;;;;4975541;28;20110;-76
2021/12/26 09:20:48;;;;;;;3.20;2.58;;;-1.10;99.90;;;;;;4992720;28;20467;-78
2021/12/26 09:23:13;;;;;;;5.50;2.97;;;-1.00;99.90;;;;;;4971889;28;20046;-77
2021/12/26 09:25:39;;;;;;;3.50;2.50;;;-1.00;99.90;;;;;;4973790;28;20031;-81
2021/12/26 09:28:05;;;;;;;3.45;2.60;;;-1.00;99.90;;;;;;4973241;28;20043;-79
2021/12/26 09:30:30;;;;;;;2.90;2.60;;;-1.00;99.90;;;;;;4971837;28;20027;-78
2021/12/26 09:32:56;;;;;;;3.15;2.53;;;-1.00;99.90;;;;;;4952618;28;20042;-77
2021/12/26 09:35:22;;;;;;;3.10;2.47;;;-1.00;99.90;;;;;;4971941;28;20026;-78
2021/12/26 09:37:48;;;;;;;3.65;2.67;;;-1.00;99.90;;;;;;4971069;28;20033;-78
2021/12/26 09:40:15;;;;;;;3.10;2.70;;;-0.90;99.90;;;;;;4970255;28;20019;-81
2021/12/26 09:42:42;;;;;;;2.45;2.08;;;-0.90;99.90;;;;;;4971574;28;20050;-81
2021/12/26 09:45:09;;;;;;;4.07;3.13;;;-0.90;99.90;;;;;;4972413;28;20022;-76
2021/12/26 09:47:38;;;;;;;3.17;2.42;;;-0.90;99.90;;;;;;4970030;28;20043;-77
2021/12/26 09:50:05;;;;;;;3.20;2.60;;;-0.90;99.90;;;;;;4972063;28;20025;-82
2021/12/26 09:52:32;;;;;;;2.83;2.13;;;-0.80;99.90;;;;;;4970204;28;20030;-78
2021/12/26 09:55:00;;;;;;;3.65;2.75;;;-0.80;99.90;;;;;;4970534;28;20033;-80
2021/12/26 09:57:27;;;;;;;2.92;2.50;;;-0.80;99.90;;;;;;4971453;28;20030;-76
2021/12/26 09:59:53;;;;;;;3.20;2.53;;;-0.80;99.90;;;;;;4972957;28;20023;-74
2021/12/26 10:02:20;;;;;;;2.53;2.33;;;-0.70;99.90;;;;;;4964463;28;20863;-79
2021/12/26 10:04:48;;;;;;;3.50;2.25;;;-0.70;99.90;;;;;;4953377;28;20484;-74
2021/12/26 10:07:19;;;;;;;2.65;2.45;;;-0.70;99.90;;;;;;4952052;28;20031;-77
2021/12/26 10:09:48;;;;;;;3.42;2.40;;;-0.70;99.90;;;;;;4953362;28;20031;-75
2021/12/26 10:12:17;;;;;;;3.40;2.58;;;-0.70;99.90;;;;;;4966396;28;20023;-76
2021/12/26 10:14:48;;;;;;;3.80;2.90;;;-0.60;99.90;;;;;;4969839;28;20548;-76
2021/12/26 10:17:19;;;;;;;3.90;2.60;;;-0.60;99.90;;;;;;4968823;28;20033;-78
2021/12/26 10:19:46;;;;;;;3.78;3.30;;;-0.60;99.90;;;;;;4977201;28;20495;-76
2021/12/26 10:22:14;;;;;;;3.70;2.75;;;-0.50;99.90;;;;;;4986928;28;20141;-76
2021/12/26 10:24:45;;;;;;;3.40;2.97;;;-0.50;99.90;;;;;;4990037;28;20042;-76
2021/12/26 10:27:19;;;;;;;3.85;2.80;;;-0.40;99.90;;;;;;4990373;28;20497;-76
2021/12/26 10:29:47;;;;;;;3.05;2.35;;;-0.40;99.90;;;;;;4991756;28;20034;-75
2021/12/26 10:32:15;;;;;;;5.20;3.40;;;-0.40;99.90;;;;;;4981757;28;20030;-78
2021/12/26 10:34:46;;;;;;;3.33;2.72;;;-0.40;99.90;;;;;;4989188;28;20034;-77
2021/12/26 10:37:12;;;;;;;4.15;2.90;;;-0.40;99.90;;;;;;4989725;28;20089;-76
2021/12/26 10:39:45;;;;;;;4.10;2.65;;;-0.40;99.90;;;;;;4990308;28;20542;-79
2021/12/26 10:42:16;;;;;;;3.67;2.80;;;-0.40;99.90;;;;;;4990670;28;20030;-76
2021/12/26 10:44:45;;;;;;;3.35;3.05;;;-0.30;99.90;;;;;;4976188;28;20011;-78
2021/12/26 10:47:17;;;;;;;4.82;3.22;;;-0.30;99.90;;;;;;4970783;28;20089;-77
2021/12/26 10:49:54;;;;;;;6.80;3.00;;;-0.30;99.90;;;;;;4970202;28;20031;-76
2021/12/26 10:52:32;;;;;;;3.88;3.15;;;-0.30;99.90;;;;;;4968187;28;20082;-78
2021/12/26 10:55:06;;;;;;;3.97;3.13;;;-0.30;99.90;;;;;;4968361;28;20105;-76
2021/12/26 10:57:38;;;;;;;5.05;4.20;;;-0.30;99.90;;;;;;4989715;28;20121;-76
2021/12/26 11:00:16;;;;;;;3.00;2.70;;;-0.20;99.90;;;;;;4973624;28;20129;-76
2021/12/26 11:02:48;;;;;;;3.17;2.72;;;-0.20;99.90;;;;;;4970531;28;20026;-75
2021/12/26 11:05:15;;;;;;;;;;;-0.20;99.90;;;;;;4970541;28;20054;-79
2021/12/26 11:07:46;;;;;;;4.88;3.30;;;-0.20;99.90;;;;;;4969768;28;19971;-78
2021/12/26 11:10:16;;;;;;;5.30;3.67;;;-0.10;99.90;;;;;;4970234;28;20054;-76
2021/12/26 11:12:55;;;;;;;3.92;3.13;;;-0.10;99.90;;;;;;4950926;29;20030;-77
2021/12/26 11:15:24;;;;;;;5.10;3.35;;;-0.10;99.90;;;;;;4966484;28;20328;-79
2021/12/26 11:17:55;;;;;;;3.90;2.97;;;-0.10;99.90;;;;;;4969515;28;20031;-75
2021/12/26 11:20:24;;;;;;;4.10;3.10;;;-0.10;99.90;;;;;;4969236;28;20027;-76
2021/12/26 11:22:53;;;;;;;4.40;3.05;;;-0.10;99.90;;;;;;4984454;28;20046;-75
2021/12/26 11:25:19;;;;;;;5.80;4.15;;;-0.10;99.90;;;;;;4973149;28;20065;-77
2021/12/26 11:27:44;;;;;;;6.70;5.03;;;0.00;99.90;;;;;;4967199;28;20078;-76
2021/12/26 11:30:11;;;;;;;5.20;3.60;;;0.00;99.90;;;;;;4990983;28;20062;-77
2021/12/26 11:32:38;;;;;;;5.32;3.67;;;0.00;99.90;;;;;;4966281;28;20034;-76
2021/12/26 11:35:07;;;;;;;3.95;3.40;;;0.00;99.90;;;;;;4972623;28;20069;-75
2021/12/26 11:37:34;;;;;;;3.88;3.17;;;0.00;99.90;;;;;;4972904;28;20113;-75
2021/12/26 11:40:01;;;;;;;4.38;3.53;;;0.10;99.90;;;;;;4973021;28;20096;-76
2021/12/26 11:42:59;;;;;;;4.88;3.88;;;0.10;99.90;;;;;;4966666;28;20027;-76
2021/12/26 11:45:42;;;;;;;6.80;3.53;;;0.10;99.90;;;;;;4971544;28;20034;-75
2021/12/26 11:48:42;;;;;;;5.93;3.35;;;0.10;99.90;;;;;;4972469;28;20034;-77
2021/12/26 11:51:20;;;;;;;4.07;3.45;;;0.20;99.90;;;;;;4970518;28;20367;-76
2021/12/26 11:54:02;;;;;;;5.32;3.53;;;0.20;99.90;;;;;;4969606;28;20108;-76
2021/12/26 11:57:01;;;;;;;5.95;4.13;;;0.30;99.90;;;;;;4972593;28;20070;-76
2021/12/26 11:59:38;;;;;;;6.38;3.83;;;0.30;99.90;;;;;;4971775;28;20030;-76
2021/12/26 12:02:04;;;;;;;4.07;3.30;;;0.30;99.90;;;;;;4970628;28;20030;-81
2021/12/26 12:04:30;;;;;;;6.18;3.88;;;0.30;99.90;;;;;;4990220;28;20030;-76
2021/12/26 12:07:03;;;;;;;5.20;3.78;;;0.30;99.90;;;;;;4971892;28;20046;-74
2021/12/26 12:09:36;;;;;;;4.43;3.67;;;0.40;99.90;;;;;;4990009;28;20085;-79
2021/12/26 12:12:15;;;;;;;6.25;3.92;;;0.40;99.90;;;;;;4968123;28;20042;-75
2021/12/26 12:14:58;;;;;;;5.88;4.20;;;0.40;99.90;;;;;;4972759;28;20030;-80
2021/12/26 12:17:29;;;;;;;5.97;4.28;;;0.40;99.90;;;;;;4972247;28;20037;-77
2021/12/26 12:20:09;;;;;;;5.10;3.95;;;0.40;99.90;;;;;;4973218;28;20033;-79
2021/12/26 12:22:36;;;;;;;5.10;4.38;;;0.40;99.90;;;;;;4972354;28;20296;-74
2021/12/26 12:25:38;;;;;;;6.53;4.28;;;0.50;99.90;;;;;;4988515;28;20033;-73
2021/12/26 12:28:14;;;;;;;5.05;3.80;;;0.50;99.90;;;;;;4989327;28;20038;-75
2021/12/26 12:30:44;;;;;;;5.15;3.72;;;0.50;99.90;;;;;;4972424;28;20390;-77
2021/12/26 12:33:16;;;;;;;5.28;4.45;;;0.50;99.90;;;;;;5001568;28;20030;-73
2021/12/26 12:35:59;;;;;;;6.95;4.70;;;0.50;99.90;;;;;;4990701;28;20037;-74
2021/12/26 12:38:44;;;;;;;6.50;5.03;;;0.60;99.90;;;;;;4972208;28;20033;-73
2021/12/26 12:41:30;;;;;;;6.95;4.72;;;0.50;99.90;;;;;;4972905;28;20034;-75
2021/12/26 12:43:58;;;;;;;5.93;3.90;;;0.60;99.90;;;;;;4990034;28;20038;-77
2021/12/26 12:46:24;;;;;;;6.55;4.18;;;0.60;99.90;;;;;;4993639;28;20113;-75
2021/12/26 12:48:59;;;;;;;4.88;4.07;;;0.70;99.90;;;;;;4976279;28;20038;-76
2021/12/26 12:51:27;;;;;;;6.72;3.83;;;0.80;99.90;;;;;;4992988;28;20408;-75
2021/12/26 12:53:58;;;;;;;7.28;4.88;;;0.90;99.90;;;;;;4974203;28;20513;-81
2021/12/26 12:56:27;;;;;;;5.55;4.40;;;1.00;99.90;;;;;;4972307;28;20181;-74